Time;durP1;ratioP1;P1;durP2;ratioP2;P2;SDS_P1;SDS_P2;PMS_P1;PMS_P2;Temp;Humidity;BMP_temperature;BMP_pressure;BME280_temperature;BME280_humidity;BME280_pressure;Samples;Min_cycle;Max_cycle;Signal;HPM_P1;HPM_P2
2021/12/04 00:00:23;;;;;;;9.90;4.90;;;;;;;8.04;100.00;-24041.44;5033048;28;20187;-66
2021/12/04 00:02:53;;;;;;;9.80;5.97;;;;;;;8.45;100.00;-24053.06;5033967;28;20179;-68
2021/12/04 00:05:20;;;;;;;11.60;5.63;;;;;;;8.25;100.00;-24047.53;5033270;28;20254;-66
2021/12/04 00:07:46;;;;;;;10.37;5.20;;;;;;;8.20;100.00;-24046.09;5048447;28;20181;-65
2021/12/04 00:10:17;;;;;;;8.67;4.57;;;;;;;8.09;100.00;-24042.84;5048861;28;20171;-65
2021/12/04 00:12:43;;;;;;;9.47;4.23;;;;;;;8.15;100.00;-24044.69;5033180;28;20160;-66
2021/12/04 00:15:09;;;;;;;9.90;4.90;;;;;;;8.19;100.00;-24045.69;5032865;28;20221;-65
2021/12/04 00:17:35;;;;;;;7.13;4.60;;;;;;;8.31;100.00;-24049.22;5033249;28;20579;-67
2021/12/04 00:20:01;;;;;;;9.63;5.10;;;;;;;8.22;100.00;-24046.69;5048065;28;20179;-64
2021/12/04 00:22:26;;;;;;;9.50;4.30;;;;;;;8.25;100.00;-24047.53;5033035;28;20219;-66
2021/12/04 00:24:52;;;;;;;6.67;3.80;;;;;;;8.23;100.00;-24046.81;5032915;28;20175;-66
2021/12/04 00:27:17;;;;;;;7.13;4.57;;;;;;;8.13;100.00;-24044.13;5048341;28;20187;-66
2021/12/04 00:29:43;;;;;;;5.70;4.30;;;;;;;8.05;100.00;-24041.84;5033114;28;20183;-67
2021/12/04 00:32:12;;;;;;;5.50;3.80;;;;;;;8.37;100.00;-24050.78;5033218;28;20171;-66
2021/12/04 00:34:42;;;;;;;7.70;4.27;;;;;;;8.03;100.00;-24041.28;5031782;28;20673;-66
2021/12/04 00:50:38;;;;;;;6.33;3.33;;;;;;;8.26;100.00;-24047.66;5032547;28;20598;-66
2021/12/04 00:53:04;;;;;;;4.67;3.87;;;;;;;8.47;100.00;-24053.47;5032682;28;20195;-67
2021/12/04 00:55:30;;;;;;;10.67;4.33;;;;;;;8.18;100.00;-24045.53;5032036;28;20723;-65
2021/12/04 00:57:55;;;;;;;5.33;3.53;;;;;;;8.17;100.00;-24045.13;5029349;28;20187;-66
2021/12/04 01:00:21;;;;;;;5.47;3.67;;;;;;;8.48;100.00;-24053.75;5032474;28;20198;-66
2021/12/04 01:02:47;;;;;;;6.27;4.17;;;;;;;8.25;100.00;-24047.53;5047871;28;20183;-64
2021/12/04 01:05:12;;;;;;;5.53;3.67;;;;;;;8.15;100.00;-24044.56;5032636;28;20183;-64
2021/12/04 01:07:38;;;;;;;6.93;3.63;;;;;;;8.18;100.00;-24045.53;5032108;28;20179;-65
2021/12/04 01:10:06;;;;;;;7.90;3.60;;;;;;;8.41;100.00;-24051.91;5030754;28;20686;-67
2021/12/04 01:12:40;;;;;;;4.20;3.20;;;;;;;8.43;100.00;-24052.63;5032276;28;20210;-69
2021/12/04 01:15:08;;;;;;;4.30;3.10;;;;;;;8.36;100.00;-24050.50;5031592;28;20202;-69
2021/12/04 01:17:33;;;;;;;6.93;3.63;;;;;;;8.43;100.00;-24052.63;5032273;28;20179;-67
2021/12/04 01:19:59;;;;;;;5.07;3.80;;;;;;;8.43;100.00;-24052.63;5030829;28;20527;-68
2021/12/04 01:22:28;;;;;;;4.47;2.57;;;;;;;8.13;100.00;-24044.00;5031939;28;20215;-67
2021/12/04 01:24:55;;;;;;;6.70;3.80;;;;;;;8.17;100.00;-24045.25;5030834;28;20269;-65
2021/12/04 01:27:20;;;;;;;5.47;2.80;;;;;;;8.36;100.00;-24050.66;5031092;28;20172;-66
2021/12/04 01:29:46;;;;;;;4.13;3.10;;;;;;;8.21;100.00;-24046.41;5032064;28;20716;-65
2021/12/04 01:32:11;;;;;;;4.83;3.07;;;;;;;8.39;100.00;-24051.50;5032263;28;20250;-64
2021/12/04 01:34:37;;;;;;;4.10;2.67;;;;;;;8.39;100.00;-24051.50;5031581;28;20296;-66
2021/12/04 01:37:04;;;;;;;5.20;3.40;;;;;;;8.13;100.00;-24044.13;5032184;28;20179;-67
2021/12/04 01:39:30;;;;;;;4.60;3.27;;;;;;;8.22;100.00;-24046.53;5030854;28;20183;-65
2021/12/04 01:41:56;;;;;;;5.57;3.47;;;;;;;8.50;100.00;-24054.47;5032202;28;20514;-67
2021/12/04 01:44:21;;;;;;;4.00;2.87;;;;;;;8.24;100.00;-24047.09;5031462;28;20190;-66
2021/12/04 01:46:48;;;;;;;4.13;2.80;;;;;;;8.40;100.00;-24051.63;5031811;28;20171;-67
2021/12/04 01:49:15;;;;;;;3.63;2.50;;;;;;;8.16;100.00;-24044.84;5030934;28;20191;-66
2021/12/04 01:51:40;;;;;;;3.87;2.70;;;;;;;8.11;100.00;-24043.41;5032035;28;20176;-68
2021/12/04 01:54:06;;;;;;;2.33;2.10;;;;;;;8.06;100.00;-24042.00;5031711;28;20214;-68
2021/12/04 01:56:33;;;;;;;2.93;2.50;;;;;;;8.19;100.00;-24045.69;5032238;28;20179;-66
2021/12/04 01:59:00;;;;;;;3.20;2.53;;;;;;;8.07;100.00;-24042.28;5031055;28;20266;-65
2021/12/04 02:01:25;;;;;;;3.27;2.07;;;;;;;8.12;100.00;-24043.69;5031508;28;20186;-66
2021/12/04 02:03:51;;;;;;;2.97;2.33;;;;;;;8.23;100.00;-24046.97;5031495;28;20187;-65
2021/12/04 02:06:16;;;;;;;3.20;2.50;;;;;;;8.20;100.00;-24045.97;5031313;28;20642;-66
2021/12/04 02:08:43;;;;;;;4.10;2.90;;;;;;;8.44;100.00;-24052.78;5047660;28;20202;-67
2021/12/04 02:11:09;;;;;;;2.50;2.30;;;;;;;8.42;100.00;-24052.19;5031961;28;20620;-66
2021/12/04 02:13:36;;;;;;;3.43;2.30;;;;;;;8.25;100.00;-24047.38;5047302;28;20371;-65
2021/12/04 02:16:03;;;;;;;3.07;2.00;;;;;;;8.43;100.00;-24052.63;5046947;28;20708;-65
2021/12/04 02:18:29;;;;;;;3.30;2.20;;;;;;;8.58;100.00;-24056.59;5031771;28;20233;-66
2021/12/04 02:20:55;;;;;;;4.67;2.47;;;;;;;8.32;100.00;-24049.38;5031076;28;20204;-64
2021/12/04 02:23:21;;;;;;;2.67;2.07;;;;;;;8.65;100.00;-24058.56;5031484;28;20247;-65
2021/12/04 02:25:46;;;;;;;3.00;2.43;;;;;;;8.39;100.00;-24051.34;5031337;28;20642;-63
2021/12/04 02:28:12;;;;;;;3.77;2.00;;;;;;;8.62;100.00;-24057.88;5030348;28;20198;-66
2021/12/04 02:30:42;;;;;;;4.80;3.17;;;;;;;8.46;100.00;-24053.34;5031344;28;20185;-65
2021/12/04 02:33:14;;;;;;;3.27;2.30;;;;;;;8.66;100.00;-24059.00;5048751;28;20253;-65
2021/12/04 02:35:51;;;;;;;2.87;2.07;;;;;;;8.39;100.00;-24051.34;5033541;28;20657;-65
2021/12/04 02:38:22;;;;;;;2.77;2.03;;;;;;;8.62;100.00;-24057.88;5035135;28;20183;-65
2021/12/04 02:40:49;;;;;;;2.83;2.47;;;;;;;8.36;100.00;-24050.50;5035097;28;20616;-64
2021/12/04 02:43:14;;;;;;;2.73;2.10;;;;;;;8.37;100.00;-24050.94;5034719;28;20210;-66
2021/12/04 02:45:42;;;;;;;3.07;2.60;;;;;;;8.64;100.00;-24058.28;5036100;28;20215;-66
2021/12/04 02:48:08;;;;;;;2.27;1.90;;;;;;;8.61;100.00;-24057.44;5035904;28;20164;-65
2021/12/04 02:50:33;;;;;;;2.03;1.77;;;;;;;8.62;100.00;-24057.72;5034444;28;20179;-67
2021/12/04 02:52:58;;;;;;;2.27;2.03;;;;;;;8.49;100.00;-24054.19;5035265;28;20686;-65
2021/12/04 02:55:24;;;;;;;2.00;1.80;;;;;;;8.65;100.00;-24058.56;5034519;28;20218;-66
2021/12/04 02:57:50;;;;;;;3.47;1.97;;;;;;;8.56;100.00;-24056.16;5034674;28;20649;-67
2021/12/04 03:00:23;;;;;;;2.03;1.83;;;;;;;8.00;100.00;-24040.59;5033099;28;20175;-66
2021/12/04 03:02:48;;;;;;;2.63;2.23;;;;;;;8.13;100.00;-24044.13;5034273;28;20258;-66
2021/12/04 03:05:21;;;;;;;1.97;1.80;;;;;;;8.06;100.00;-24042.16;5032895;28;20651;-66
2021/12/04 03:07:46;;;;;;;1.87;1.73;;;;;;;8.00;100.00;-24040.44;5034663;28;20229;-67
2021/12/04 03:10:12;;;;;;;1.97;1.77;;;;;;;8.06;100.00;-24042.00;5034194;28;20628;-67
2021/12/04 03:12:38;;;;;;;2.40;1.90;;;;;;;8.26;100.00;-24047.66;5034387;28;20175;-66
2021/12/04 03:15:05;;;;;;;2.07;1.87;;;;;;;8.17;100.00;-24045.13;5034179;28;20262;-66
2021/12/04 03:17:30;;;;;;;4.53;2.63;;;;;;;8.18;100.00;-24045.53;5033151;28;20198;-67
2021/12/04 03:19:56;;;;;;;4.70;2.20;;;;;;;7.86;100.00;-24036.47;5033342;28;20655;-70
2021/12/04 03:22:23;;;;;;;2.30;2.10;;;;;;;8.21;100.00;-24046.25;5034005;28;20234;-65
2021/12/04 03:24:50;;;;;;;3.17;2.13;;;;;;;8.00;100.00;-24040.44;5034065;28;20179;-67
2021/12/04 03:27:17;;;;;;;2.10;1.90;;;;;;;8.03;100.00;-24041.28;5034696;28;20184;-65
2021/12/04 03:30:05;;;;;;;2.43;1.73;;;;;;;8.02;100.00;-24041.00;5033451;28;20183;-66
2021/12/04 03:35:26;;;;;;;2.40;2.00;;;;;;;7.71;100.00;-24032.22;5013975;28;20174;-67
2021/12/04 03:40:49;;;;;;;2.90;2.20;;;;;;;7.75;100.00;-24033.50;5034115;28;20601;-67
2021/12/04 03:43:14;;;;;;;2.17;1.97;;;;;;;7.55;100.00;-24027.97;5033469;28;20647;-65
2021/12/04 03:45:42;;;;;;;2.60;2.37;;;;;;;7.72;100.00;-24032.66;5033932;28;20194;-65
2021/12/04 03:48:12;;;;;;;3.03;2.13;;;;;;;7.78;100.00;-24034.34;5033802;28;20182;-65
2021/12/04 03:50:38;;;;;;;3.13;2.10;;;;;;;7.80;100.00;-24034.91;5032379;28;20203;-65
2021/12/04 03:53:04;;;;;;;1.90;1.77;;;;;;;7.63;100.00;-24030.09;5033461;28;20584;-67
2021/12/04 03:55:29;;;;;;;2.23;2.03;;;;;;;7.54;100.00;-24027.56;5032452;28;20187;-67
2021/12/04 03:57:55;;;;;;;3.37;2.17;;;;;;;7.83;100.00;-24035.78;5033758;28;20178;-67
2021/12/04 04:00:23;;;;;;;2.67;2.30;;;;;;;7.56;100.00;-24028.13;5033550;28;20172;-65
2021/12/04 04:02:48;;;;;;;2.50;2.23;;;;;;;7.67;100.00;-24031.09;5033597;28;20214;-66
2021/12/04 04:05:14;;;;;;;4.00;2.20;;;;;;;7.83;100.00;-24035.78;5033333;28;20203;-65
2021/12/04 04:07:39;;;;;;;2.40;2.10;;;;;;;7.45;100.00;-24025.00;5033636;28;20163;-67
2021/12/04 04:10:06;;;;;;;3.17;2.10;;;;;;;7.70;100.00;-24032.09;5033676;28;20175;-66
2021/12/04 04:12:32;;;;;;;2.13;1.93;;;;;;;7.52;100.00;-24026.97;5033353;28;20167;-67
2021/12/04 04:14:58;;;;;;;2.40;2.00;;;;;;;7.75;100.00;-24033.38;5032980;28;20588;-66
2021/12/04 04:17:24;;;;;;;2.97;2.20;;;;;;;7.55;100.00;-24027.97;5032290;28;20574;-65
2021/12/04 04:19:49;;;;;;;2.57;2.17;;;;;;;7.35;100.00;-24022.31;5032937;28;20623;-65
2021/12/04 04:22:14;;;;;;;1.70;1.60;;;;;;;7.31;100.00;-24021.16;5031618;28;20223;-67
2021/12/04 04:24:40;;;;;;;2.57;2.20;;;;;;;7.50;100.00;-24026.41;5033016;28;20175;-65
2021/12/04 04:27:06;;;;;;;3.20;2.47;;;;;;;7.22;100.00;-24018.47;5032887;28;20236;-66
2021/12/04 04:29:31;;;;;;;2.30;2.10;;;;;;;7.66;100.00;-24030.94;5033128;28;20198;-66
2021/12/04 04:31:57;;;;;;;3.00;2.00;;;;;;;7.68;100.00;-24031.38;5032956;28;20215;-67
2021/12/04 04:34:28;;;;;;;3.37;2.20;;;;;;;7.65;100.00;-24030.66;5032662;28;20604;-65
2021/12/04 05:14:34;;;;;;;3.50;2.50;;;;;;;7.40;100.00;-24023.59;5032190;28;20213;-64
2021/12/04 05:19:54;;;;;;;2.20;2.00;;;;;;;7.83;100.00;-24035.78;5021878;28;20199;-64
2021/12/04 05:22:21;;;;;;;2.63;2.13;;;;;;;7.73;100.00;-24032.78;5031947;28;20225;-65
2021/12/04 05:24:47;;;;;;;3.20;2.10;;;;;;;7.66;100.00;-24030.81;5032100;28;20179;-64
2021/12/04 05:27:14;;;;;;;2.00;1.80;;;;;;;7.65;100.00;-24030.66;5031907;28;20203;-66
2021/12/04 05:29:41;;;;;;;4.73;2.53;;;;;;;7.81;100.00;-24035.06;5032357;28;20270;-65
2021/12/04 05:32:08;;;;;;;1.77;1.53;;;;;;;7.85;100.00;-24036.34;5031794;28;20172;-65
2021/12/04 05:34:34;;;;;;;3.63;1.97;;;;;;;7.79;100.00;-24034.63;5032434;28;20211;-65
2021/12/04 05:37:00;;;;;;;2.83;1.97;;;;;;;7.84;100.00;-24036.06;5032014;28;20185;-64
2021/12/04 05:39:26;;;;;;;2.30;1.93;;;;;;;7.60;100.00;-24029.09;5031749;28;20266;-63
2021/12/04 05:41:52;;;;;;;2.67;2.17;;;;;;;7.56;100.00;-24028.13;5031882;28;20591;-66
2021/12/04 05:44:21;;;;;;;2.03;1.80;;;;;;;7.54;100.00;-24027.69;5031767;28;20262;-64
2021/12/04 05:46:54;;;;;;;2.17;1.97;;;;;;;7.60;100.00;-24029.09;5032298;28;20198;-64
2021/12/04 05:52:16;;;;;;;3.00;1.87;;;;;;;7.65;100.00;-24030.66;5031533;28;20263;-64
2021/12/04 05:57:11;;;;;;;3.13;2.07;;;;;;;7.86;100.00;-24036.63;5031837;28;20266;-68
2021/12/04 05:59:37;;;;;;;2.07;1.80;;;;;;;7.53;100.00;-24027.41;5031533;28;20185;-66
2021/12/04 06:02:04;;;;;;;2.33;1.60;;;;;;;7.84;100.00;-24035.91;5031755;28;20175;-66
2021/12/04 06:04:29;;;;;;;2.80;2.17;;;;;;;7.86;100.00;-24036.47;5029413;28;20780;-69
2021/12/04 06:06:56;;;;;;;2.10;1.87;;;;;;;7.54;100.00;-24027.69;5032560;28;20187;-66
2021/12/04 06:09:21;;;;;;;2.60;1.73;;;;;;;7.92;100.00;-24038.31;5035350;28;20234;-67
2021/12/04 06:11:47;;;;;;;2.83;2.10;;;;;;;7.69;100.00;-24031.81;5035930;28;20281;-68
2021/12/04 06:14:12;;;;;;;3.70;2.10;;;;;;;7.62;100.00;-24029.69;5035527;28;20211;-66
2021/12/04 06:16:38;;;;;;;2.00;1.80;;;;;;;7.70;100.00;-24031.94;5035346;28;20183;-68
2021/12/04 06:19:13;;;;;;;1.73;1.60;;;;;;;7.74;100.00;-24033.06;5035412;28;20175;-65
2021/12/04 06:24:24;;;;;;;2.07;1.73;;;;;;;8.06;100.00;-24042.00;5035077;28;20708;-67
2021/12/04 06:26:49;;;;;;;3.60;2.00;;;;;;;7.67;100.00;-24031.25;5033755;28;20179;-66
2021/12/04 06:29:15;;;;;;;2.57;2.37;;;;;;;8.04;100.00;-24041.44;5017727;28;20180;-68
2021/12/04 06:31:40;;;;;;;1.90;1.70;;;;;;;7.76;100.00;-24033.66;5014655;28;20177;-66
2021/12/04 06:34:06;;;;;;;2.20;2.00;;;;;;;7.78;100.00;-24034.22;5015101;28;20242;-68
2021/12/04 06:36:31;;;;;;;2.10;1.70;;;;;;;7.99;100.00;-24040.31;5014961;28;20275;-67
2021/12/04 06:38:57;;;;;;;2.40;2.20;;;;;;;7.96;100.00;-24039.31;5014868;28;20242;-65
2021/12/04 06:41:22;;;;;;;2.87;2.30;;;;;;;7.76;100.00;-24033.66;5015301;28;20175;-68
2021/12/04 06:43:50;;;;;;;2.87;2.00;;;;;;;7.97;100.00;-24039.72;5014292;28;20624;-65
2021/12/04 06:46:19;;;;;;;2.53;2.03;;;;;;;8.00;100.00;-24040.44;5014494;28;20616;-68
2021/12/04 06:51:35;;;;;;;3.53;1.93;;;;;;;7.67;100.00;-24031.25;5014578;28;20251;-65
2021/12/04 06:54:12;;;;;;;2.33;1.90;;;;;;;7.40;100.00;-24023.59;5015080;28;20282;-64
2021/12/04 06:56:41;;;;;;;2.23;1.83;;;;;;;7.42;100.00;-24024.16;5034107;28;20179;-67
2021/12/04 06:59:11;;;;;;;3.00;2.40;;;;;;;7.67;100.00;-24031.09;5034241;28;20168;-67
2021/12/04 07:01:38;;;;;;;5.67;2.73;;;;;;;7.35;100.00;-24022.16;5034369;28;20175;-67
2021/12/04 07:04:04;;;;;;;2.70;2.30;;;;;;;7.36;100.00;-24022.59;5034248;28;20710;-66
2021/12/04 07:06:30;;;;;;;2.97;1.90;;;;;;;7.39;100.00;-24023.44;5034088;28;20171;-66
2021/12/04 07:08:58;;;;;;;3.33;2.20;;;;;;;7.70;100.00;-24032.09;5033594;28;20174;-68
2021/12/04 07:11:25;;;;;;;2.63;2.00;;;;;;;7.54;100.00;-24027.69;5033961;28;20655;-68
2021/12/04 07:13:51;;;;;;;2.93;2.10;;;;;;;7.62;100.00;-24029.69;5033906;28;20234;-67
2021/12/04 07:16:19;;;;;;;3.37;2.13;;;;;;;7.52;100.00;-24026.97;5032413;28;20604;-67
2021/12/04 07:18:44;;;;;;;4.30;2.17;;;;;;;7.34;100.00;-24021.88;5032912;28;20182;-64
2021/12/04 07:21:10;;;;;;;5.23;2.30;;;;;;;7.34;100.00;-24021.88;5033308;28;20262;-67
2021/12/04 07:23:36;;;;;;;3.20;2.33;;;;;;;7.58;100.00;-24028.69;5032056;28;20226;-66
2021/12/04 07:26:02;;;;;;;3.83;2.67;;;;;;;7.42;100.00;-24024.16;5033680;28;20179;-69
2021/12/04 07:28:28;;;;;;;1.93;1.83;;;;;;;7.33;100.00;-24021.75;5032652;28;20190;-69
2021/12/04 07:31:37;;;;;;;2.50;2.30;;;;;;;7.51;100.00;-24026.69;5034654;28;20619;-68
2021/12/04 07:33:43;;;;;;;3.10;2.50;;;;;;;7.51;100.00;-24026.69;5031834;28;20298;-69
2021/12/04 07:36:09;;;;;;;2.30;2.10;;;;;;;7.36;100.00;-24022.59;5033904;28;20219;-67
2021/12/04 07:38:34;;;;;;;5.30;2.07;;;;;;;7.60;100.00;-24029.25;5033821;28;20207;-70
2021/12/04 07:41:01;;;;;;;3.27;2.40;;;;;;;7.66;100.00;-24030.94;5033731;28;20163;-66
2021/12/04 07:43:27;;;;;;;3.30;2.20;;;;;;;7.57;100.00;-24028.25;5033492;28;20563;-66
2021/12/04 07:45:53;;;;;;;2.73;2.43;;;;;;;7.56;100.00;-24028.13;5033610;28;20160;-67
2021/12/04 07:48:19;;;;;;;3.23;2.47;;;;;;;7.30;100.00;-24020.88;5033292;28;20179;-68
2021/12/04 07:50:44;;;;;;;2.17;1.97;;;;;;;7.35;100.00;-24022.16;5033455;28;20183;-67
2021/12/04 07:53:10;;;;;;;3.90;2.30;;;;;;;7.79;100.00;-24034.63;5033418;28;20201;-68
2021/12/04 07:55:35;;;;;;;2.70;2.43;;;;;;;7.79;100.00;-24034.63;5033714;28;20210;-66
2021/12/04 07:58:01;;;;;;;3.77;2.47;;;;;;;7.70;100.00;-24032.09;5032773;28;20179;-67
2021/12/04 08:00:27;;;;;;;3.23;2.17;;;;;;;7.60;100.00;-24029.25;5033631;28;20638;-68
2021/12/04 08:02:52;;;;;;;3.63;2.10;;;;;;;7.99;100.00;-24040.31;5035058;28;20593;-67
2021/12/04 08:05:18;;;;;;;3.10;2.00;;;;;;;7.99;100.00;-24040.31;5034249;28;20180;-67
2021/12/04 08:07:44;;;;;;;2.93;2.57;;;;;;;7.78;100.00;-24034.22;5033029;28;20177;-66
2021/12/04 08:10:13;;;;;;;2.87;2.20;;;;;;;7.87;100.00;-24036.91;5032666;28;20196;-69
2021/12/04 08:12:39;;;;;;;2.23;1.87;;;;;;;8.16;100.00;-24044.84;5032929;28;20175;-66
2021/12/04 08:15:06;;;;;;;3.17;2.17;;;;;;;7.91;100.00;-24038.03;5032657;28;20203;-66
2021/12/04 08:17:31;;;;;;;2.50;2.30;;;;;;;8.34;100.00;-24050.06;5032610;28;20225;-67
2021/12/04 08:19:57;;;;;;;2.50;2.30;;;;;;;8.36;100.00;-24050.50;5031523;28;20187;-67
2021/12/04 08:22:22;;;;;;;2.90;1.80;;;;;;;8.16;100.00;-24044.84;5032970;28;20223;-67
2021/12/04 08:24:48;;;;;;;2.90;2.30;;;;;;;8.40;100.00;-24051.78;5032518;28;20672;-67
2021/12/04 08:27:16;;;;;;;4.83;2.80;;;;;;;8.38;100.00;-24051.22;5032876;28;20174;-68
2021/12/04 08:29:41;;;;;;;2.43;2.20;;;;;;;8.49;100.00;-24054.19;5031602;28;20266;-66
2021/12/04 08:32:08;;;;;;;1.77;1.67;;;;;;;8.52;100.00;-24054.88;5031469;28;20285;-67
2021/12/04 08:34:34;;;;;;;2.30;2.10;;;;;;;8.34;100.00;-24050.06;5031134;28;20207;-68
2021/12/04 08:37:00;;;;;;;2.10;1.90;;;;;;;8.55;100.00;-24055.88;5032432;28;20156;-68
2021/12/04 08:39:26;;;;;;;2.87;2.37;;;;;;;8.58;100.00;-24056.59;5032165;28;20262;-66
2021/12/04 08:41:51;;;;;;;2.40;2.20;;;;;;;8.53;100.00;-24055.16;5031779;28;20163;-67
2021/12/04 08:44:19;;;;;;;3.07;2.20;;;;;;;8.63;100.00;-24058.00;5031733;28;20702;-68
2021/12/04 08:46:46;;;;;;;2.57;2.10;;;;;;;8.86;100.00;-24064.66;5031641;28;20554;-68
2021/12/04 08:49:11;;;;;;;3.13;2.20;;;;;;;8.67;100.00;-24059.28;5030867;28;20237;-67
2021/12/04 08:51:37;;;;;;;4.00;2.30;;;;;;;8.67;100.00;-24059.13;5031705;28;20175;-68
2021/12/04 08:54:04;;;;;;;3.07;2.40;;;;;;;9.03;100.00;-24069.19;5032304;28;20202;-68
2021/12/04 08:56:30;;;;;;;3.27;2.40;;;;;;;8.77;100.00;-24061.97;5031950;28;20583;-67
2021/12/04 08:58:56;;;;;;;4.07;2.83;;;;;;;8.88;100.00;-24065.06;5031960;28;20167;-65
2021/12/04 09:01:26;;;;;;;3.73;2.70;;;;;;;9.07;100.00;-24070.31;5032182;28;20194;-68
2021/12/04 09:03:56;;;;;;;3.47;2.30;;;;;;;9.20;100.00;-24074.00;5031842;28;20605;-68
2021/12/04 09:06:23;;;;;;;3.00;2.10;;;;;;;9.32;100.00;-24077.38;5029844;28;20630;-67
2021/12/04 09:08:49;;;;;;;2.77;2.07;;;;;;;9.01;100.00;-24068.63;5031528;28;20245;-65
2021/12/04 09:11:19;;;;;;;2.80;2.50;;;;;;;9.33;100.00;-24077.66;5030896;28;20183;-68
2021/12/04 09:13:46;;;;;;;2.27;2.00;;;;;;;9.45;100.00;-24081.06;5031429;28;20199;-68
2021/12/04 09:16:12;;;;;;;2.90;2.43;;;;;;;9.39;100.00;-24079.34;5031667;28;20655;-66
2021/12/04 09:18:38;;;;;;;3.63;2.73;;;;;;;9.49;100.00;-24082.19;5031270;28;20214;-67
2021/12/04 09:21:05;;;;;;;4.55;2.60;;;;;;;9.37;100.00;-24078.78;5031902;28;20179;-67
2021/12/04 09:23:35;;;;;;;3.73;2.57;;;;;;;9.62;100.00;-24085.84;5031911;28;20255;-66
2021/12/04 09:26:03;;;;;;;4.50;2.22;;;;;;;9.58;100.00;-24084.59;5031783;28;20171;-68
2021/12/04 10:01:07;;;;;;;3.28;2.25;;;;;;;10.35;100.00;-24106.06;5035620;28;20278;-65
2021/12/04 10:04:06;;;;;;;4.20;2.55;;;;;;;10.37;100.00;-24106.75;5035252;28;20151;-67
2021/12/04 10:18:19;;;;;;;2.78;1.98;;;;;;;11.38;100.00;-24134.81;5014948;28;20176;-66
2021/12/04 10:34:28;;;;;;;2.95;2.35;;;;;;;11.44;100.00;-24136.50;5034654;28;20242;-67
2021/12/04 10:36:54;;;;;;;6.03;2.55;;;;;;;10.83;100.00;-24119.59;5034516;28;20175;-64
2021/12/04 10:39:20;;;;;;;3.30;2.08;;;;;;;11.20;100.00;-24129.88;5034188;28;20185;-66
2021/12/04 10:41:46;;;;;;;2.97;2.20;;;;;;;11.20;100.00;-24129.75;5034602;28;20552;-66
2021/12/04 10:44:13;;;;;;;2.70;1.92;;;;;;;11.39;100.00;-24135.09;5034821;28;20272;-66
2021/12/04 10:46:38;;;;;;;3.40;2.33;;;;;;;11.46;100.00;-24137.22;5033862;28;20168;-65
2021/12/04 10:49:12;;;;;;;2.58;1.77;;;;;;;11.69;100.00;-24143.41;5034202;28;20178;-66
2021/12/04 10:52:01;;;;;;;3.58;2.10;;;;;;;11.65;100.00;-24142.28;5047775;28;20614;-66
2021/12/04 10:54:31;;;;;;;3.85;2.13;;;;;;;11.50;100.00;-24138.22;5032462;28;20202;-67
2021/12/04 11:00:14;;;;;;;4.00;2.03;;;;;;;11.95;100.00;-24150.75;5034386;28;20724;-66
2021/12/04 11:03:05;;;;;;;2.85;2.03;;;;;;;11.87;100.00;-24148.63;5034195;28;20206;-66
2021/12/04 11:44:06;;;;;;;2.72;2.03;;;;;;;13.02;100.00;-24180.44;5032821;28;20258;-64
2021/12/04 11:46:44;;;;;;;3.00;2.45;;;;;;;12.88;100.00;-24176.63;5028701;28;20282;-67
2021/12/04 11:49:14;;;;;;;2.35;2.13;;;;;;;13.01;100.00;-24180.28;5032053;28;20646;-67
2021/12/04 11:51:59;;;;;;;3.17;2.25;;;;;;;12.77;100.00;-24173.53;5030906;28;20195;-67
2021/12/04 11:54:46;;;;;;;2.85;2.17;;;;;;;12.63;100.00;-24169.59;5031483;28;20202;-66
2021/12/04 11:57:13;;;;;;;3.70;2.53;;;;;;;12.85;100.00;-24175.78;5028313;28;20583;-66
2021/12/04 11:59:42;;;;;;;3.88;2.13;;;;;;;13.08;100.00;-24182.13;5027954;28;20579;-66
2021/12/04 12:02:15;;;;;;;3.17;2.20;;;;;;;12.99;100.00;-24179.59;5031766;28;20292;-67
2021/12/04 12:04:48;;;;;;;3.97;2.53;;;;;;;12.99;100.00;-24179.72;5028401;28;20187;-65
2021/12/04 12:07:18;;;;;;;3.58;2.40;;;;;;;13.03;100.00;-24180.72;5048305;28;20558;-65
2021/12/04 12:09:47;;;;;;;3.70;2.03;;;;;;;12.99;100.00;-24179.59;5031588;28;20191;-63
2021/12/04 12:12:15;;;;;;;3.95;1.83;;;;;;;12.92;100.00;-24177.75;5033118;28;20201;-64
2021/12/04 12:14:48;;;;;;;3.90;2.25;;;;;;;12.75;100.00;-24172.97;5032352;28;20207;-65
2021/12/04 12:17:16;;;;;;;3.45;2.38;;;;;;;12.68;100.00;-24171.16;5031450;28;20183;-64
2021/12/04 12:19:49;;;;;;;5.53;2.22;;;;;;;12.91;100.00;-24177.47;5032618;28;20183;-66
2021/12/04 12:23:09;;;;;;;4.50;2.65;;;;;;;13.03;100.00;-24180.72;5031065;28;20269;-65
2021/12/04 12:25:26;;;;;;;3.60;2.60;;;;;;;13.01;100.00;-24180.16;5022344;28;20187;-66
2021/12/04 12:31:45;;;;;;;2.33;1.92;;;;;;;12.95;100.00;-24178.59;5029391;28;20183;-65
2021/12/04 12:36:10;;;;;;;3.25;2.17;;;;;;;12.44;100.00;-24164.41;5031887;28;20175;-65
2021/12/04 12:38:54;;;;;;;2.95;2.15;;;;;;;12.53;100.00;-24166.94;5032028;28;20171;-66
2021/12/04 12:41:30;;;;;;;2.80;2.17;;;;;;;12.32;100.00;-24161.16;5030202;28;20186;-65
2021/12/04 12:44:04;;;;;;;2.88;2.25;;;;;;;12.27;100.00;-24159.63;5015209;28;20634;-65
2021/12/04 12:46:40;;;;;;;2.38;1.98;;;;;;;11.92;100.00;-24150.03;5031977;28;20233;-67
2021/12/04 12:49:19;;;;;;;2.60;2.03;;;;;;;11.72;100.00;-24144.25;5031091;28;20712;-65
2021/12/04 12:51:53;;;;;;;3.78;2.30;;;;;;;11.79;100.00;-24146.38;5025719;28;20207;-66
2021/12/04 12:54:30;;;;;;;3.55;2.30;;;;;;;11.38;100.00;-24134.81;5028143;28;20202;-67
2021/12/04 12:57:10;;;;;;;2.63;2.17;;;;;;;11.60;100.00;-24141.03;5028833;28;20213;-66
2021/12/04 13:13:24;;;;;;;4.03;2.58;;;;;;;11.19;100.00;-24129.47;5027342;28;20241;-66
2021/12/04 13:15:52;;;;;;;4.20;2.40;;;;;;;11.05;100.00;-24125.81;5030949;28;20182;-64
2021/12/04 13:18:23;;;;;;;3.20;2.33;;;;;;;10.54;100.00;-24111.56;5031841;28;20163;-66
2021/12/04 13:20:51;;;;;;;4.07;2.50;;;;;;;10.82;100.00;-24119.19;5026206;28;20266;-65
2021/12/04 13:23:19;;;;;;;4.53;2.85;;;;;;;10.74;100.00;-24116.91;5045895;28;20597;-63
2021/12/04 13:25:58;;;;;;;3.53;2.45;;;;;;;10.66;100.00;-24114.81;5012987;28;20268;-65
2021/12/04 13:28:28;;;;;;;5.63;3.00;;;;;;;10.32;100.00;-24105.22;5030713;28;20168;-65
2021/12/04 13:30:54;;;;;;;3.15;2.47;;;;;;;10.55;100.00;-24111.69;5029841;28;20186;-67
2021/12/04 13:33:20;;;;;;;3.97;2.80;;;;;;;10.46;100.00;-24109.31;5031551;28;20194;-63
2021/12/04 13:35:46;;;;;;;6.50;2.80;;;;;;;10.37;100.00;-24106.63;5031294;28;20171;-65
2021/12/04 13:38:15;;;;;;;3.83;2.78;;;;;;;10.39;100.00;-24107.31;5030898;28;20183;-64
2021/12/04 13:40:44;;;;;;;3.38;2.55;;;;;;;10.36;100.00;-24106.47;5031020;28;20317;-63
2021/12/04 13:43:14;;;;;;;4.45;2.88;;;;;;;9.38;100.00;-24079.06;5031463;28;20186;-65
2021/12/04 13:45:41;;;;;;;5.25;3.13;;;;;;;10.35;100.00;-24106.19;5030399;28;20183;-65
2021/12/04 13:48:07;;;;;;;4.00;2.88;;;;;;;10.00;100.00;-24096.44;5029274;28;20179;-64
2021/12/04 13:53:05;;;;;;;4.35;2.85;;;;;;;9.84;100.00;-24091.94;5031429;28;20182;-65
2021/12/04 13:55:36;;;;;;;6.43;3.05;;;;;;;9.87;100.00;-24092.78;5030083;28;20651;-65
2021/12/04 13:58:03;;;;;;;4.78;3.20;;;;;;;9.86;100.00;-24092.34;5031498;28;20187;-66
2021/12/04 14:00:29;;;;;;;4.47;3.20;;;;;;;10.12;100.00;-24099.69;5045875;28;20187;-63
2021/12/04 14:02:54;;;;;;;6.13;3.65;;;;;;;9.76;100.00;-24089.66;5028434;28;20260;-64
2021/12/04 14:05:22;;;;;;;5.43;3.55;;;;;;;9.76;100.00;-24089.81;5031850;28;20561;-65
2021/12/04 14:07:54;;;;;;;5.57;3.65;;;;;;;9.98;100.00;-24095.75;5030132;28;20704;-63
2021/12/04 14:10:23;;;;;;;8.02;4.15;;;;;;;9.63;100.00;-24086.00;5023990;28;20202;-65
2021/12/04 14:12:50;;;;;;;8.30;3.75;;;;;;;9.52;100.00;-24082.91;5030384;28;20266;-64
2021/12/04 14:15:19;;;;;;;6.82;4.45;;;;;;;9.62;100.00;-24085.84;5031435;28;20233;-64
2021/12/04 14:17:45;;;;;;;6.18;3.13;;;;;;;9.81;100.00;-24090.94;5031430;28;20175;-64
2021/12/04 14:20:20;;;;;;;4.53;3.03;;;;;;;9.78;100.00;-24090.25;5028532;28;20245;-65
2021/12/04 14:22:48;;;;;;;5.80;3.27;;;;;;;9.15;100.00;-24072.56;5022717;28;20235;-65
2021/12/04 14:25:16;;;;;;;6.35;4.07;;;;;;;9.61;100.00;-24085.56;5030325;28;20241;-64
2021/12/04 14:27:41;;;;;;;5.78;3.53;;;;;;;9.52;100.00;-24083.03;5029718;28;21085;-65
2021/12/04 14:30:23;;;;;;;6.82;3.55;;;;;;;9.38;100.00;-24078.94;5032330;28;20274;-65
2021/12/04 14:32:53;;;;;;;6.95;3.85;;;;;;;9.17;100.00;-24073.13;5033491;28;20203;-65
2021/12/04 14:35:21;;;;;;;6.50;3.97;;;;;;;9.52;100.00;-24082.91;5032171;28;20537;-64
2021/12/04 14:37:50;;;;;;;9.73;4.73;;;;;;;9.74;100.00;-24089.09;5031001;28;20183;-63
2021/12/04 14:40:22;;;;;;;6.43;4.00;;;;;;;9.70;100.00;-24087.97;5031686;28;20179;-64